sensor_id;sensor_type;location;lat;lon;timestamp;P1;durP1;ratioP1;P2;durP2;ratioP2
49320;SDS011;35817;44.498;0.166;2022-09-30T04:23:22;2.00;;;0.95;;
49320;SDS011;35817;44.498;0.166;2022-09-30T04:25:53;5.87;;;1.50;;
49320;SDS011;35817;44.498;0.166;2022-09-30T04:28:19;7.40;;;1.60;;
49320;SDS011;35817;44.498;0.166;2022-09-30T04:30:46;6.53;;;1.15;;
49320;SDS011;35817;44.498;0.166;2022-09-30T04:57:42;1.83;;;0.80;;
49320;SDS011;35817;44.498;0.166;2022-09-30T06:23:00;9.60;;;2.83;;
49320;SDS011;35817;44.498;0.166;2022-09-30T06:25:27;6.82;;;2.67;;
49320;SDS011;35817;44.498;0.166;2022-09-30T06:27:53;12.48;;;4.55;;
49320;SDS011;35817;44.498;0.166;2022-09-30T06:30:20;8.05;;;3.05;;
49320;SDS011;35817;44.498;0.166;2022-09-30T06:32:46;5.57;;;2.00;;
49320;SDS011;35817;44.498;0.166;2022-09-30T06:35:12;4.27;;;2.00;;
49320;SDS011;35817;44.498;0.166;2022-09-30T13:00:58;1.90;;;0.30;;
49320;SDS011;35817;44.498;0.166;2022-09-30T13:03:50;0.75;;;0.25;;
49320;SDS011;35817;44.498;0.166;2022-09-30T13:54:58;0.50;;;0.10;;
49320;SDS011;35817;44.498;0.166;2022-09-30T13:57:34;1.95;;;0.10;;
49320;SDS011;35817;44.498;0.166;2022-09-30T14:24:11;1.20;;;0.20;;
49320;SDS011;35817;44.498;0.166;2022-09-30T14:32:09;0.50;;;0.10;;
49320;SDS011;35817;44.498;0.166;2022-09-30T14:34:36;2.15;;;0.15;;
49320;SDS011;35817;44.498;0.166;2022-09-30T14:37:04;1.50;;;0.40;;
49320;SDS011;35817;44.498;0.166;2022-09-30T14:39:37;0.32;;;0.10;;
49320;SDS011;35817;44.498;0.166;2022-09-30T14:42:03;2.10;;;0.30;;
49320;SDS011;35817;44.498;0.166;2022-09-30T14:44:31;1.13;;;0.40;;
49320;SDS011;35817;44.498;0.166;2022-09-30T14:47:00;0.65;;;0.13;;
49320;SDS011;35817;44.498;0.166;2022-09-30T14:49:28;0.77;;;0.30;;
49320;SDS011;35817;44.498;0.166;2022-09-30T15:06:57;0.68;;;0.10;;
49320;SDS011;35817;44.498;0.166;2022-09-30T15:09:32;0.77;;;0.10;;
49320;SDS011;35817;44.498;0.166;2022-09-30T15:14:30;1.05;;;0.17;;
49320;SDS011;35817;44.498;0.166;2022-09-30T15:16:57;0.75;;;0.15;;
49320;SDS011;35817;44.498;0.166;2022-09-30T15:19:25;0.45;;;0.25;;
49320;SDS011;35817;44.498;0.166;2022-09-30T15:21:54;2.13;;;0.10;;
49320;SDS011;35817;44.498;0.166;2022-09-30T15:24:26;0.20;;;0.10;;
49320;SDS011;35817;44.498;0.166;2022-09-30T15:26:55;0.30;;;0.10;;
49320;SDS011;35817;44.498;0.166;2022-09-30T16:34:55;1.10;;;0.10;;
49320;SDS011;35817;44.498;0.166;2022-09-30T16:37:21;0.93;;;0.20;;
49320;SDS011;35817;44.498;0.166;2022-09-30T16:39:47;0.52;;;0.10;;
49320;SDS011;35817;44.498;0.166;2022-09-30T16:42:14;1.15;;;0.10;;
49320;SDS011;35817;44.498;0.166;2022-09-30T16:44:41;0.65;;;0.10;;
49320;SDS011;35817;44.498;0.166;2022-09-30T16:47:11;0.40;;;0.15;;
49320;SDS011;35817;44.498;0.166;2022-09-30T16:49:38;0.70;;;0.20;;
49320;SDS011;35817;44.498;0.166;2022-09-30T16:52:06;0.52;;;0.17;;
49320;SDS011;35817;44.498;0.166;2022-09-30T16:54:33;2.15;;;1.17;;
49320;SDS011;35817;44.498;0.166;2022-09-30T16:56:59;0.63;;;0.20;;
49320;SDS011;35817;44.498;0.166;2022-09-30T16:59:26;0.43;;;0.10;;
49320;SDS011;35817;44.498;0.166;2022-09-30T17:01:58;0.98;;;0.20;;
49320;SDS011;35817;44.498;0.166;2022-09-30T17:04:25;1.00;;;0.30;;
49320;SDS011;35817;44.498;0.166;2022-09-30T17:06:52;2.30;;;0.30;;
49320;SDS011;35817;44.498;0.166;2022-09-30T17:09:20;0.60;;;0.20;;
49320;SDS011;35817;44.498;0.166;2022-09-30T17:11:46;0.70;;;0.20;;
49320;SDS011;35817;44.498;0.166;2022-09-30T17:14:13;0.52;;;0.20;;
49320;SDS011;35817;44.498;0.166;2022-09-30T17:16:40;2.65;;;0.30;;
49320;SDS011;35817;44.498;0.166;2022-09-30T17:19:06;1.88;;;0.10;;
49320;SDS011;35817;44.498;0.166;2022-09-30T17:21:32;0.38;;;0.10;;
49320;SDS011;35817;44.498;0.166;2022-09-30T17:23:58;0.90;;;0.20;;
49320;SDS011;35817;44.498;0.166;2022-09-30T17:26:26;0.90;;;0.20;;
49320;SDS011;35817;44.498;0.166;2022-09-30T17:28:52;1.25;;;0.20;;
49320;SDS011;35817;44.498;0.166;2022-09-30T17:31:17;0.75;;;0.40;;
49320;SDS011;35817;44.498;0.166;2022-09-30T17:33:43;1.95;;;0.30;;
49320;SDS011;35817;44.498;0.166;2022-09-30T17:36:10;2.38;;;0.30;;
49320;SDS011;35817;44.498;0.166;2022-09-30T17:38:37;2.20;;;0.25;;
49320;SDS011;35817;44.498;0.166;2022-09-30T17:41:04;0.60;;;0.40;;
49320;SDS011;35817;44.498;0.166;2022-09-30T17:43:49;0.45;;;0.20;;
49320;SDS011;35817;44.498;0.166;2022-09-30T17:46:17;0.88;;;0.20;;
49320;SDS011;35817;44.498;0.166;2022-09-30T17:48:46;1.15;;;0.20;;
49320;SDS011;35817;44.498;0.166;2022-09-30T17:51:13;0.40;;;0.20;;
49320;SDS011;35817;44.498;0.166;2022-09-30T17:53:42;2.10;;;0.30;;
49320;SDS011;35817;44.498;0.166;2022-09-30T17:56:15;0.50;;;0.20;;
49320;SDS011;35817;44.498;0.166;2022-09-30T17:58:44;0.57;;;0.20;;
49320;SDS011;35817;44.498;0.166;2022-09-30T18:01:12;0.68;;;0.25;;
49320;SDS011;35817;44.498;0.166;2022-09-30T18:03:38;0.40;;;0.20;;
49320;SDS011;35817;44.498;0.166;2022-09-30T18:06:05;0.63;;;0.20;;
49320;SDS011;35817;44.498;0.166;2022-09-30T18:08:30;0.85;;;0.22;;
49320;SDS011;35817;44.498;0.166;2022-09-30T18:10:56;1.60;;;0.35;;
49320;SDS011;35817;44.498;0.166;2022-09-30T18:13:23;1.75;;;0.47;;
49320;SDS011;35817;44.498;0.166;2022-09-30T18:15:49;2.08;;;0.30;;
49320;SDS011;35817;44.498;0.166;2022-09-30T18:18:15;1.02;;;0.22;;
49320;SDS011;35817;44.498;0.166;2022-09-30T18:20:41;1.85;;;0.50;;
49320;SDS011;35817;44.498;0.166;2022-09-30T18:23:09;0.80;;;0.30;;
49320;SDS011;35817;44.498;0.166;2022-09-30T18:25:35;3.42;;;0.35;;
49320;SDS011;35817;44.498;0.166;2022-09-30T18:28:02;1.00;;;0.10;;
49320;SDS011;35817;44.498;0.166;2022-09-30T18:30:30;2.30;;;0.10;;
49320;SDS011;35817;44.498;0.166;2022-09-30T18:32:55;2.10;;;0.30;;
49320;SDS011;35817;44.498;0.166;2022-09-30T18:35:23;4.28;;;0.28;;
49320;SDS011;35817;44.498;0.166;2022-09-30T18:37:49;0.70;;;0.10;;
49320;SDS011;35817;44.498;0.166;2022-09-30T18:40:18;1.85;;;0.20;;
49320;SDS011;35817;44.498;0.166;2022-09-30T18:45:12;0.85;;;0.20;;
49320;SDS011;35817;44.498;0.166;2022-09-30T18:47:39;0.50;;;0.25;;
49320;SDS011;35817;44.498;0.166;2022-09-30T18:50:07;0.30;;;0.10;;
49320;SDS011;35817;44.498;0.166;2022-09-30T18:52:33;0.70;;;0.30;;
49320;SDS011;35817;44.498;0.166;2022-09-30T18:55:00;0.90;;;0.20;;
49320;SDS011;35817;44.498;0.166;2022-09-30T18:57:25;1.55;;;0.22;;
49320;SDS011;35817;44.498;0.166;2022-09-30T18:59:51;1.85;;;0.30;;
49320;SDS011;35817;44.498;0.166;2022-09-30T19:02:17;0.60;;;0.17;;
49320;SDS011;35817;44.498;0.166;2022-09-30T19:04:44;0.30;;;0.10;;
49320;SDS011;35817;44.498;0.166;2022-09-30T19:07:12;3.15;;;0.20;;
49320;SDS011;35817;44.498;0.166;2022-09-30T19:09:38;4.03;;;0.20;;
49320;SDS011;35817;44.498;0.166;2022-09-30T19:12:05;0.20;;;0.10;;
49320;SDS011;35817;44.498;0.166;2022-09-30T19:14:31;1.33;;;0.40;;
49320;SDS011;35817;44.498;0.166;2022-09-30T19:16:58;0.77;;;0.20;;
49320;SDS011;35817;44.498;0.166;2022-09-30T19:19:24;0.55;;;0.10;;
49320;SDS011;35817;44.498;0.166;2022-09-30T19:21:50;0.85;;;0.15;;
49320;SDS011;35817;44.498;0.166;2022-09-30T19:24:15;2.47;;;0.20;;
49320;SDS011;35817;44.498;0.166;2022-09-30T19:26:41;0.38;;;0.10;;
49320;SDS011;35817;44.498;0.166;2022-09-30T19:29:08;0.32;;;0.22;;
49320;SDS011;35817;44.498;0.166;2022-09-30T19:31:35;3.10;;;0.22;;
49320;SDS011;35817;44.498;0.166;2022-09-30T19:34:00;0.73;;;0.20;;
49320;SDS011;35817;44.498;0.166;2022-09-30T19:36:27;0.60;;;0.25;;
49320;SDS011;35817;44.498;0.166;2022-09-30T19:38:56;0.50;;;0.30;;
49320;SDS011;35817;44.498;0.166;2022-09-30T19:41:24;0.37;;;0.20;;
49320;SDS011;35817;44.498;0.166;2022-09-30T19:43:55;0.50;;;0.20;;
49320;SDS011;35817;44.498;0.166;2022-09-30T19:46:25;1.50;;;0.20;;
49320;SDS011;35817;44.498;0.166;2022-09-30T19:48:50;0.45;;;0.20;;
49320;SDS011;35817;44.498;0.166;2022-09-30T19:53:43;2.30;;;0.30;;
49320;SDS011;35817;44.498;0.166;2022-09-30T19:56:14;2.30;;;0.35;;
49320;SDS011;35817;44.498;0.166;2022-09-30T20:11:05;0.45;;;0.30;;
49320;SDS011;35817;44.498;0.166;2022-09-30T20:13:32;2.03;;;0.32;;
49320;SDS011;35817;44.498;0.166;2022-09-30T20:15:59;1.65;;;0.50;;
49320;SDS011;35817;44.498;0.166;2022-09-30T20:18:26;0.40;;;0.20;;
49320;SDS011;35817;44.498;0.166;2022-09-30T20:20:52;5.68;;;0.30;;
49320;SDS011;35817;44.498;0.166;2022-09-30T20:23:19;1.33;;;0.20;;
49320;SDS011;35817;44.498;0.166;2022-09-30T20:25:46;1.73;;;0.43;;
49320;SDS011;35817;44.498;0.166;2022-09-30T20:28:12;0.82;;;0.20;;
49320;SDS011;35817;44.498;0.166;2022-09-30T20:30:39;2.78;;;0.30;;
49320;SDS011;35817;44.498;0.166;2022-09-30T20:33:13;1.40;;;0.90;;
49320;SDS011;35817;44.498;0.166;2022-09-30T20:35:40;2.15;;;0.65;;
49320;SDS011;35817;44.498;0.166;2022-09-30T20:38:08;0.73;;;0.20;;
49320;SDS011;35817;44.498;0.166;2022-09-30T20:40:38;0.52;;;0.20;;
49320;SDS011;35817;44.498;0.166;2022-09-30T20:43:05;0.50;;;0.13;;
49320;SDS011;35817;44.498;0.166;2022-09-30T20:45:31;0.68;;;0.20;;
49320;SDS011;35817;44.498;0.166;2022-09-30T20:47:57;0.88;;;0.25;;
49320;SDS011;35817;44.498;0.166;2022-09-30T20:50:23;0.82;;;0.47;;
49320;SDS011;35817;44.498;0.166;2022-09-30T20:53:02;0.98;;;0.40;;
49320;SDS011;35817;44.498;0.166;2022-09-30T20:55:32;0.43;;;0.20;;
49320;SDS011;35817;44.498;0.166;2022-09-30T20:58:01;3.25;;;0.32;;
49320;SDS011;35817;44.498;0.166;2022-09-30T21:00:27;1.48;;;0.30;;
49320;SDS011;35817;44.498;0.166;2022-09-30T21:02:53;1.63;;;0.20;;
49320;SDS011;35817;44.498;0.166;2022-09-30T21:05:21;1.70;;;0.30;;
49320;SDS011;35817;44.498;0.166;2022-09-30T21:07:47;0.30;;;0.20;;
49320;SDS011;35817;44.498;0.166;2022-09-30T21:10:12;0.50;;;0.30;;
49320;SDS011;35817;44.498;0.166;2022-09-30T21:12:38;3.60;;;0.45;;
49320;SDS011;35817;44.498;0.166;2022-09-30T21:15:04;1.75;;;0.20;;
49320;SDS011;35817;44.498;0.166;2022-09-30T21:17:30;0.80;;;0.30;;
49320;SDS011;35817;44.498;0.166;2022-09-30T21:19:56;2.35;;;0.40;;
49320;SDS011;35817;44.498;0.166;2022-09-30T22:16:04;2.42;;;0.60;;
49320;SDS011;35817;44.498;0.166;2022-09-30T22:18:32;1.63;;;0.75;;
49320;SDS011;35817;44.498;0.166;2022-09-30T22:21:07;0.82;;;0.47;;
49320;SDS011;35817;44.498;0.166;2022-09-30T22:23:34;2.15;;;0.40;;
49320;SDS011;35817;44.498;0.166;2022-09-30T22:26:07;1.70;;;0.32;;
49320;SDS011;35817;44.498;0.166;2022-09-30T22:28:35;1.48;;;0.55;;
49320;SDS011;35817;44.498;0.166;2022-09-30T22:31:11;0.73;;;0.35;;
49320;SDS011;35817;44.498;0.166;2022-09-30T22:33:38;1.83;;;0.70;;
49320;SDS011;35817;44.498;0.166;2022-09-30T22:36:24;3.10;;;0.57;;
49320;SDS011;35817;44.498;0.166;2022-09-30T22:39:08;0.98;;;0.50;;
49320;SDS011;35817;44.498;0.166;2022-09-30T22:41:35;3.20;;;0.40;;
49320;SDS011;35817;44.498;0.166;2022-09-30T22:44:02;3.25;;;0.63;;
49320;SDS011;35817;44.498;0.166;2022-09-30T22:46:28;2.35;;;0.60;;
49320;SDS011;35817;44.498;0.166;2022-09-30T22:48:54;1.35;;;0.77;;
49320;SDS011;35817;44.498;0.166;2022-09-30T22:51:24;2.13;;;0.53;;
49320;SDS011;35817;44.498;0.166;2022-09-30T22:53:50;1.42;;;0.80;;
49320;SDS011;35817;44.498;0.166;2022-09-30T22:56:16;1.70;;;0.65;;
49320;SDS011;35817;44.498;0.166;2022-09-30T22:58:43;2.35;;;1.33;;
49320;SDS011;35817;44.498;0.166;2022-09-30T23:01:11;1.77;;;0.60;;
49320;SDS011;35817;44.498;0.166;2022-09-30T23:03:37;0.70;;;0.45;;
49320;SDS011;35817;44.498;0.166;2022-09-30T23:06:03;1.75;;;0.80;;
49320;SDS011;35817;44.498;0.166;2022-09-30T23:08:35;3.25;;;0.70;;
49320;SDS011;35817;44.498;0.166;2022-09-30T23:11:07;1.60;;;0.80;;
49320;SDS011;35817;44.498;0.166;2022-09-30T23:13:34;2.53;;;0.60;;
49320;SDS011;35817;44.498;0.166;2022-09-30T23:16:01;1.52;;;0.40;;
49320;SDS011;35817;44.498;0.166;2022-09-30T23:18:27;1.60;;;0.40;;
49320;SDS011;35817;44.498;0.166;2022-09-30T23:20:54;2.13;;;0.95;;
49320;SDS011;35817;44.498;0.166;2022-09-30T23:23:22;2.35;;;0.50;;
49320;SDS011;35817;44.498;0.166;2022-09-30T23:25:55;2.90;;;0.63;;
49320;SDS011;35817;44.498;0.166;2022-09-30T23:28:22;2.28;;;0.70;;
49320;SDS011;35817;44.498;0.166;2022-09-30T23:30:48;3.42;;;0.45;;
49320;SDS011;35817;44.498;0.166;2022-09-30T23:33:14;1.90;;;0.73;;
